createdAt,value
2023-02-08T00:01:00.777Z,68.99
2023-02-08T00:03:29.775Z,69.20
2023-02-08T00:05:57.299Z,69.33
2023-02-08T00:08:24.777Z,69.35
2023-02-08T00:10:52.000Z,69.27
2023-02-08T00:13:19.439Z,69.17
2023-02-08T00:15:47.258Z,69.28
2023-02-08T00:18:15.010Z,69.40
2023-02-08T00:20:43.512Z,69.39
2023-02-08T00:23:12.293Z,69.44
2023-02-08T00:25:40.815Z,69.43
2023-02-08T00:28:11.686Z,69.46
2023-02-08T00:30:39.649Z,69.38
2023-02-08T00:33:08.549Z,69.29
2023-02-08T00:35:36.048Z,69.17
2023-02-08T00:38:04.581Z,69.34
2023-02-08T00:40:32.102Z,69.33
2023-02-08T00:42:59.636Z,69.16
2023-02-08T00:45:29.537Z,69.04
2023-02-08T00:47:57.559Z,68.87
2023-02-08T00:50:26.165Z,68.91
2023-02-08T00:52:53.541Z,69.01
2023-02-08T00:55:21.016Z,68.88
2023-02-08T00:57:48.514Z,68.83
2023-02-08T01:00:16.217Z,68.64
2023-02-08T01:02:43.901Z,68.82
2023-02-08T01:05:11.757Z,68.83
2023-02-08T01:07:40.195Z,68.90
2023-02-08T01:10:11.338Z,68.76
2023-02-08T01:12:39.805Z,68.67
2023-02-08T01:15:08.115Z,68.60
2023-02-08T01:17:35.571Z,68.65
2023-02-08T01:20:03.677Z,68.55
2023-02-08T01:22:32.329Z,68.66
2023-02-08T01:25:01.362Z,68.49
2023-02-08T01:27:29.971Z,68.44
2023-02-08T01:29:57.254Z,68.58
2023-02-08T01:32:24.705Z,68.67
2023-02-08T01:34:52.141Z,68.65
2023-02-08T01:37:19.757Z,68.68
2023-02-08T01:39:48.002Z,68.69
2023-02-08T01:42:16.804Z,68.75
2023-02-08T01:45:14.164Z,68.77
2023-02-08T01:47:45.158Z,68.90
2023-02-08T01:50:14.489Z,69.02
2023-02-08T01:52:43.487Z,69.09
2023-02-08T01:55:15.234Z,69.03
2023-02-08T01:57:45.184Z,68.94
2023-02-08T02:00:17.936Z,69.04
2023-02-08T02:02:47.357Z,69.13
2023-02-08T02:05:16.678Z,69.15
2023-02-08T02:07:44.499Z,69.29
2023-02-08T02:10:24.470Z,69.14
2023-02-08T02:12:55.412Z,69.14
2023-02-08T02:15:22.989Z,69.25
2023-02-08T02:17:52.341Z,69.16
2023-02-08T02:20:30.392Z,69.00
2023-02-08T02:23:24.523Z,68.98
2023-02-08T02:26:15.472Z,69.07
2023-02-08T02:28:55.773Z,69.13
2023-02-08T02:31:38.925Z,69.12
2023-02-08T02:34:34.392Z,69.10
2023-02-08T02:37:24.261Z,69.10
2023-02-08T02:40:04.387Z,69.10
2023-02-08T02:43:00.429Z,69.27
2023-02-08T02:45:43.984Z,69.24
2023-02-08T02:48:21.046Z,69.34
2023-02-08T02:50:58.395Z,69.20
2023-02-08T02:53:44.691Z,69.19
2023-02-08T02:56:21.742Z,69.19
2023-02-08T02:58:49.534Z,69.24
2023-02-08T03:01:25.576Z,69.12
2023-02-08T03:03:54.252Z,69.41
2023-02-08T03:06:52.933Z,69.61
2023-02-08T03:09:32.740Z,69.77
2023-02-08T03:12:26.631Z,70.04
2023-02-08T03:15:14.457Z,70.48
2023-02-08T03:17:48.469Z,70.83
2023-02-08T03:20:19.371Z,70.69
2023-02-08T03:22:53.364Z,70.82
2023-02-08T03:25:30.128Z,70.57
2023-02-08T03:28:07.159Z,70.49
2023-02-08T03:30:45.601Z,70.51
2023-02-08T03:33:16.214Z,70.45
2023-02-08T03:35:47.286Z,70.65
2023-02-08T03:38:21.372Z,70.69
2023-02-08T03:40:51.077Z,70.79
2023-02-08T03:43:26.996Z,71.15
2023-02-08T03:45:58.132Z,70.99
2023-02-08T03:48:28.942Z,71.05
2023-02-08T03:50:57.004Z,71.19
2023-02-08T03:53:25.837Z,71.17
2023-02-08T03:55:56.856Z,71.18
2023-02-08T03:58:33.053Z,71.05
2023-02-08T04:01:19.629Z,71.46
2023-02-08T04:03:49.697Z,71.18
2023-02-08T04:06:17.202Z,71.35
2023-02-08T04:08:44.620Z,71.42
2023-02-08T04:11:12.210Z,71.45
2023-02-08T04:13:39.703Z,71.40
2023-02-08T04:16:07.236Z,71.29
2023-02-08T04:18:37.431Z,71.45
2023-02-08T04:21:05.368Z,71.36
2023-02-08T04:23:32.950Z,71.49
2023-02-08T04:26:00.564Z,71.32
2023-02-08T04:28:28.032Z,71.30
2023-02-08T04:30:58.987Z,71.23
2023-02-08T04:33:26.511Z,71.17
2023-02-08T04:35:53.956Z,71.28
2023-02-08T04:38:21.507Z,71.27
2023-02-08T04:40:48.771Z,71.25
2023-02-08T04:43:16.038Z,71.35
2023-02-08T04:45:43.793Z,71.43
2023-02-08T04:48:12.070Z,71.43
2023-02-08T04:50:40.013Z,71.60
2023-02-08T04:53:07.790Z,71.95
2023-02-08T04:55:35.088Z,72.08
2023-02-08T04:58:02.711Z,72.25
2023-02-08T05:00:29.996Z,72.23
2023-02-08T05:02:58.472Z,72.74
2023-02-08T05:05:27.668Z,72.65
2023-02-08T05:07:55.069Z,72.90
2023-02-08T05:10:22.480Z,73.39
2023-02-08T05:12:49.945Z,73.71
2023-02-08T05:15:17.555Z,73.46
2023-02-08T05:17:45.068Z,73.28
2023-02-08T05:20:13.181Z,73.43
2023-02-08T05:22:44.574Z,73.83
2023-02-08T05:25:25.427Z,73.31
2023-02-08T05:27:53.055Z,73.01
2023-02-08T05:30:20.667Z,72.79
2023-02-08T05:32:48.221Z,72.87
2023-02-08T05:35:15.799Z,73.10
2023-02-08T05:40:37.149Z,73.05
2023-02-08T05:43:04.798Z,72.83
2023-02-08T05:45:32.478Z,72.90
2023-02-08T05:48:00.464Z,73.09
2023-02-08T05:50:28.123Z,73.31
2023-02-08T05:52:55.282Z,73.31
2023-02-08T05:55:28.098Z,73.38
2023-02-08T05:58:04.255Z,73.35
2023-02-08T06:00:34.780Z,73.67
2023-02-08T06:03:04.188Z,73.57
2023-02-08T06:05:32.399Z,73.04
2023-02-08T06:08:00.094Z,72.26
2023-02-08T06:10:33.984Z,71.99
2023-02-08T06:13:01.466Z,71.92
2023-02-08T06:15:29.215Z,71.89
2023-02-08T06:17:57.054Z,71.30
2023-02-08T06:20:25.040Z,69.78
2023-02-08T06:22:52.673Z,69.76
2023-02-08T06:25:20.104Z,69.34
2023-02-08T06:27:49.501Z,68.24
2023-02-08T06:30:16.985Z,66.89
2023-02-08T06:32:44.888Z,64.40
2023-02-08T06:35:12.666Z,64.10
2023-02-08T06:37:40.435Z,63.93
2023-02-08T06:40:08.680Z,61.79
2023-02-08T06:42:37.791Z,62.13
2023-02-08T06:45:07.741Z,61.54
2023-02-08T06:47:35.079Z,61.52
2023-02-08T06:50:02.592Z,60.54
2023-02-08T06:52:30.360Z,60.23
2023-02-08T06:54:57.793Z,60.63
2023-02-08T06:57:31.940Z,59.97
2023-02-08T07:00:00.904Z,60.98
2023-02-08T07:02:28.584Z,60.35
2023-02-08T07:04:56.373Z,60.69
2023-02-08T07:07:23.828Z,61.32
2023-02-08T07:09:51.653Z,60.96
2023-02-08T07:12:18.890Z,60.54
2023-02-08T07:14:46.424Z,60.90
2023-02-08T07:17:14.069Z,60.44
2023-02-08T07:19:41.245Z,59.47
2023-02-08T07:22:12.183Z,59.54
2023-02-08T07:24:40.697Z,59.12
2023-02-08T07:27:10.682Z,59.13
2023-02-08T07:29:38.878Z,58.72
2023-02-08T07:32:07.696Z,58.76
2023-02-08T07:34:37.355Z,58.28
2023-02-08T07:37:04.989Z,58.21
2023-02-08T07:39:32.739Z,57.30
2023-02-08T07:42:00.822Z,57.67
2023-02-08T07:44:30.859Z,55.43
2023-02-08T07:46:58.301Z,56.14
2023-02-08T07:49:26.712Z,56.68
2023-02-08T07:52:05.378Z,55.98
2023-02-08T07:54:33.058Z,54.70
2023-02-08T07:57:03.715Z,54.05
2023-02-08T07:59:31.396Z,54.42
2023-02-08T08:01:59.260Z,52.93
2023-02-08T08:04:26.910Z,54.22
2023-02-08T08:06:57.341Z,52.96
2023-02-08T08:09:24.973Z,53.93
2023-02-08T08:11:53.436Z,54.30
2023-02-08T08:14:24.802Z,53.39
2023-02-08T08:16:52.308Z,53.09
2023-02-08T08:19:19.846Z,53.23
2023-02-08T08:21:47.940Z,53.13
2023-02-08T08:24:15.368Z,52.71
2023-02-08T08:26:42.916Z,53.17
2023-02-08T08:29:10.481Z,52.69
2023-02-08T08:31:39.964Z,51.02
2023-02-08T08:34:09.639Z,50.65
2023-02-08T08:36:37.156Z,50.53
2023-02-08T08:39:04.823Z,50.60
2023-02-08T08:41:35.601Z,50.66
2023-02-08T08:44:05.192Z,50.55
2023-02-08T08:46:35.077Z,49.33
2023-02-08T08:49:12.720Z,50.39
2023-02-08T08:52:04.045Z,50.62
2023-02-08T08:54:58.373Z,49.51
2023-02-08T08:57:26.570Z,49.89
2023-02-08T08:59:53.931Z,49.74
2023-02-08T09:02:21.493Z,49.53
2023-02-08T09:04:49.034Z,47.48
2023-02-08T09:07:16.856Z,48.19
2023-02-08T09:09:46.046Z,46.94
2023-02-08T09:12:15.393Z,47.31
2023-02-08T09:14:46.138Z,46.63
2023-02-08T09:17:13.472Z,46.58
2023-02-08T09:19:42.906Z,43.87
2023-02-08T09:22:10.332Z,43.03
2023-02-08T09:24:38.292Z,45.03
2023-02-08T09:27:05.777Z,43.26
2023-02-08T09:29:33.988Z,43.52
2023-02-08T09:32:02.204Z,43.46
2023-02-08T09:34:29.532Z,43.24
2023-02-08T09:36:57.199Z,40.77
2023-02-08T09:39:25.593Z,41.72
2023-02-08T09:42:03.070Z,40.14
2023-02-08T09:44:53.380Z,41.39
2023-02-08T09:47:38.561Z,43.69
2023-02-08T09:50:21.886Z,44.12
2023-02-08T09:53:08.284Z,43.64
2023-02-08T09:55:38.425Z,43.55
2023-02-08T09:58:27.032Z,43.55
2023-02-08T10:00:55.880Z,42.89
2023-02-08T10:03:32.982Z,42.76
2023-02-08T10:06:05.271Z,41.38
2023-02-08T10:08:35.506Z,41.95
2023-02-08T10:11:22.366Z,42.47
2023-02-08T10:14:10.441Z,42.11
2023-02-08T10:16:50.088Z,41.91
2023-02-08T10:19:24.350Z,43.18
2023-02-08T10:21:55.556Z,42.89
2023-02-08T10:24:47.094Z,42.66
2023-02-08T10:27:16.865Z,42.68
2023-02-08T10:29:59.346Z,42.43
2023-02-08T10:32:46.232Z,42.87
2023-02-08T10:35:29.371Z,43.23
2023-02-08T10:38:11.783Z,43.83
2023-02-08T10:40:40.911Z,44.05
2023-02-08T10:43:21.202Z,42.90
2023-02-08T10:45:54.769Z,44.38
2023-02-08T10:48:43.803Z,43.79
2023-02-08T10:51:15.097Z,43.60
2023-02-08T10:53:43.087Z,42.78
2023-02-08T10:56:32.354Z,43.23
2023-02-08T10:59:02.916Z,42.43
2023-02-08T11:01:30.759Z,42.61
2023-02-08T11:04:09.825Z,42.66
2023-02-08T11:06:39.619Z,43.69
2023-02-08T11:09:29.232Z,42.88
2023-02-08T11:11:58.722Z,42.42
2023-02-08T11:14:45.601Z,43.63
2023-02-08T11:17:00.765Z,43.01
2023-02-08T11:19:35.430Z,43.10
2023-02-08T11:22:07.444Z,43.01
2023-02-08T11:24:42.800Z,43.38
2023-02-08T11:27:43.588Z,43.87
2023-02-08T11:30:22.652Z,44.32
2023-02-08T11:33:10.702Z,44.22
2023-02-08T11:35:38.288Z,43.37
2023-02-08T11:38:06.295Z,44.84
2023-02-08T11:40:40.141Z,44.94
2023-02-08T11:43:11.467Z,44.99
2023-02-08T11:45:39.106Z,44.27
2023-02-08T11:48:10.455Z,44.78
2023-02-08T11:50:40.404Z,44.98
2023-02-08T11:53:27.193Z,44.53
2023-02-08T11:56:01.345Z,43.94
2023-02-08T11:58:29.223Z,43.03
2023-02-08T12:01:06.128Z,43.84
2023-02-08T12:03:38.882Z,44.17
2023-02-08T12:06:28.057Z,44.58
2023-02-08T12:09:20.583Z,44.03
2023-02-08T12:12:16.168Z,44.47
2023-02-08T12:15:09.527Z,43.91
2023-02-08T12:17:58.584Z,44.33
2023-02-08T12:20:44.864Z,45.03
2023-02-08T12:23:20.352Z,45.01
2023-02-08T12:26:06.999Z,44.55
2023-02-08T12:32:29.353Z,45.59
2023-02-08T12:35:40.201Z,45.55
2023-02-08T12:38:30.470Z,44.88
2023-02-08T12:41:07.532Z,44.85
2023-02-08T12:43:42.100Z,45.36
2023-02-08T12:46:16.017Z,45.64
2023-02-08T12:49:20.264Z,45.57
2023-02-08T12:51:51.404Z,45.54
2023-02-08T12:54:34.367Z,45.88
2023-02-08T12:57:03.406Z,45.72
2023-02-08T12:59:46.491Z,45.46
2023-02-08T13:02:28.942Z,45.65
2023-02-08T13:04:59.669Z,45.64
2023-02-08T13:07:36.687Z,45.53
2023-02-08T13:10:13.714Z,45.34
2023-02-08T13:12:47.492Z,45.67
2023-02-08T13:15:31.060Z,45.57
2023-02-08T13:17:58.353Z,45.18
2023-02-08T13:20:38.246Z,45.64
2023-02-08T13:23:24.647Z,45.61
2023-02-08T13:26:04.626Z,45.78
2023-02-08T13:28:32.253Z,45.63
2023-02-08T13:31:08.780Z,46.00
2023-02-08T13:34:00.371Z,46.38
2023-02-08T13:36:30.283Z,47.02
2023-02-08T13:38:59.307Z,47.32
2023-02-08T13:41:27.583Z,47.23
2023-02-08T13:44:10.703Z,47.43
2023-02-08T13:46:46.470Z,47.47
2023-02-08T13:49:40.228Z,47.89
2023-02-08T13:52:09.168Z,47.26
2023-02-08T13:54:36.687Z,48.45
2023-02-08T13:57:08.089Z,47.59
2023-02-08T13:59:37.987Z,47.43
2023-02-08T14:02:22.586Z,47.07
2023-02-08T14:04:52.934Z,47.68
2023-02-08T14:07:28.196Z,47.77
2023-02-08T14:10:05.302Z,47.78
2023-02-08T14:12:44.872Z,46.87
2023-02-08T14:15:18.797Z,47.03
2023-02-08T14:17:48.447Z,47.40
2023-02-08T14:20:39.233Z,47.82
2023-02-08T14:23:24.572Z,48.15
2023-02-08T14:25:54.251Z,48.34
2023-02-08T14:28:34.137Z,48.15
2023-02-08T14:31:04.789Z,48.21
2023-02-08T14:33:37.770Z,48.37
2023-02-08T14:36:08.662Z,48.41
2023-02-08T14:38:51.408Z,48.39
2023-02-08T14:41:44.855Z,48.54
2023-02-08T14:44:42.609Z,48.77
2023-02-08T14:47:26.244Z,48.63
2023-02-08T14:50:16.520Z,48.91
2023-02-08T14:52:50.345Z,48.96
2023-02-08T14:55:21.444Z,49.08
2023-02-08T14:57:56.084Z,49.33
2023-02-08T15:00:26.256Z,49.46
2023-02-08T15:02:55.831Z,49.32
2023-02-08T15:05:26.728Z,49.56
2023-02-08T15:07:56.136Z,49.57
2023-02-08T15:10:25.865Z,49.57
2023-02-08T15:12:57.299Z,49.80
2023-02-08T15:15:39.590Z,50.06
2023-02-08T15:18:19.138Z,50.19
2023-02-08T15:21:04.469Z,50.44
2023-02-08T15:23:32.531Z,50.79
2023-02-08T15:26:05.761Z,51.05
2023-02-08T15:28:36.560Z,51.35
2023-02-08T15:31:09.690Z,51.41
2023-02-08T15:33:42.753Z,51.25
2023-02-08T15:36:29.090Z,51.16
2023-02-08T15:38:58.917Z,51.34
2023-02-08T15:41:33.808Z,51.43
2023-02-08T15:44:21.925Z,51.84
2023-02-08T15:49:21.788Z,52.34
2023-02-08T15:51:50.415Z,52.68
2023-02-08T15:54:18.717Z,52.85
2023-02-08T15:56:49.484Z,53.25
2023-02-08T15:59:20.409Z,53.44
2023-02-08T16:01:47.843Z,53.58
2023-02-08T16:04:15.488Z,53.73
2023-02-08T16:06:56.871Z,53.66
2023-02-08T16:09:27.874Z,54.49
2023-02-08T16:11:59.015Z,54.18
2023-02-08T16:14:29.852Z,54.38
2023-02-08T16:17:00.615Z,55.08
2023-02-08T16:19:30.520Z,55.35
2023-02-08T16:22:17.464Z,55.18
2023-02-08T16:24:46.839Z,55.11
2023-02-08T16:27:21.172Z,55.13
2023-02-08T16:29:51.245Z,55.43
2023-02-08T16:32:27.300Z,55.45
2023-02-08T16:34:55.107Z,55.76
2023-02-08T16:37:28.926Z,56.00
2023-02-08T16:40:19.434Z,56.11
2023-02-08T16:42:46.809Z,56.50
2023-02-08T16:45:21.848Z,56.88
2023-02-08T16:47:52.330Z,56.65
2023-02-08T16:50:23.040Z,56.87
2023-02-08T16:52:53.922Z,57.27
2023-02-08T16:55:26.591Z,57.20
2023-02-08T16:57:56.282Z,57.48
2023-02-08T17:00:31.942Z,57.56
2023-02-08T17:03:00.305Z,57.47
2023-02-08T17:05:30.320Z,57.66
2023-02-08T17:08:07.150Z,58.09
2023-02-08T17:10:34.737Z,58.12
2023-02-08T17:13:19.424Z,58.39
2023-02-08T17:15:33.833Z,58.48
2023-02-08T17:18:01.453Z,58.28
2023-02-08T17:20:31.100Z,58.53
2023-02-08T17:23:00.523Z,58.61
2023-02-08T17:25:28.936Z,58.79
2023-02-08T17:27:59.434Z,59.01
2023-02-08T17:30:33.142Z,59.19
2023-02-08T17:33:00.547Z,59.35
2023-02-08T17:35:32.813Z,59.23
2023-02-08T17:38:02.780Z,59.40
2023-02-08T17:40:32.726Z,59.34
2023-02-08T17:43:00.929Z,59.85
2023-02-08T17:45:28.801Z,60.07
2023-02-08T17:48:01.223Z,60.45
2023-02-08T17:50:28.743Z,60.53
2023-02-08T17:52:56.234Z,60.78
2023-02-08T17:55:24.445Z,61.10
2023-02-08T17:57:55.058Z,61.53
2023-02-08T18:00:25.362Z,61.42
2023-02-08T18:02:54.877Z,61.52
2023-02-08T18:05:25.833Z,61.91
2023-02-08T18:07:54.851Z,61.70
2023-02-08T18:10:23.853Z,61.79
2023-02-08T18:12:51.785Z,61.88
2023-02-08T18:15:20.880Z,61.95
2023-02-08T18:17:49.787Z,61.99
2023-02-08T18:20:17.726Z,62.47
2023-02-08T18:22:45.125Z,62.46
2023-02-08T18:25:15.251Z,62.88
2023-02-08T18:27:42.856Z,62.72
2023-02-08T18:30:11.835Z,62.94
2023-02-08T18:32:42.548Z,63.33
2023-02-08T18:35:10.439Z,63.29
2023-02-08T18:37:38.154Z,63.34
2023-02-08T18:43:06.768Z,63.71
2023-02-08T18:45:34.032Z,63.60
2023-02-08T18:48:01.114Z,63.65
2023-02-08T18:50:28.617Z,63.46
2023-02-08T18:52:59.037Z,63.58
2023-02-08T18:55:26.379Z,63.56
2023-02-08T18:57:53.672Z,63.64
2023-02-08T19:00:21.431Z,63.73
2023-02-08T19:02:49.060Z,64.04
2023-02-08T19:05:20.824Z,63.98
2023-02-08T19:07:50.715Z,63.78
2023-02-08T19:10:18.352Z,63.99
2023-02-08T19:12:45.824Z,64.40
2023-02-08T19:15:18.336Z,64.43
2023-02-08T19:17:45.769Z,64.38
2023-02-08T19:20:22.561Z,64.52
2023-02-08T19:22:49.505Z,64.47
2023-02-08T19:25:17.190Z,64.36
2023-02-08T19:27:49.852Z,64.51
2023-02-08T19:30:20.332Z,64.32
2023-02-08T19:32:48.276Z,64.68
2023-02-08T19:35:16.100Z,64.68
2023-02-08T19:37:45.221Z,64.68
2023-02-08T19:40:16.524Z,64.77
2023-02-08T19:42:46.761Z,64.93
2023-02-08T19:45:15.602Z,64.71
2023-02-08T19:47:51.074Z,64.90
2023-02-08T19:50:13.480Z,64.60
2023-02-08T19:52:42.685Z,64.70
2023-02-08T19:55:10.375Z,64.65
2023-02-08T19:57:39.634Z,64.52
2023-02-08T20:00:22.511Z,64.50
2023-02-08T20:02:39.538Z,64.56
2023-02-08T20:05:07.710Z,64.61
2023-02-08T20:07:35.406Z,65.06
2023-02-08T20:10:05.146Z,64.93
2023-02-08T20:12:32.976Z,64.76
2023-02-08T20:15:02.699Z,65.32
2023-02-08T20:17:32.737Z,65.22
2023-02-08T20:20:05.843Z,65.43
2023-02-08T20:22:33.234Z,65.68
2023-02-08T20:25:01.620Z,65.53
2023-02-08T20:27:34.322Z,66.02
2023-02-08T20:30:02.609Z,66.45
2023-02-08T20:32:31.121Z,66.83
2023-02-08T20:35:00.112Z,66.94
2023-02-08T20:37:27.951Z,67.49
2023-02-08T20:39:55.556Z,67.21
2023-02-08T20:42:23.483Z,67.18
2023-02-08T20:44:53.572Z,67.08
2023-02-08T20:47:21.444Z,67.02
2023-02-08T20:49:49.587Z,67.24
2023-02-08T20:52:18.133Z,67.12
2023-02-08T20:54:47.985Z,67.31
2023-02-08T20:57:17.724Z,67.26
2023-02-08T20:59:46.018Z,67.51
2023-02-08T21:02:23.572Z,67.69
2023-02-08T21:04:51.300Z,67.54
2023-02-08T21:07:27.097Z,67.62
2023-02-08T21:13:53.312Z,67.59
2023-02-08T21:16:39.691Z,67.37
2023-02-08T21:19:08.032Z,67.30
2023-02-08T21:21:35.592Z,67.20
2023-02-08T21:24:13.048Z,67.25
2023-02-08T21:26:43.501Z,67.20
2023-02-08T21:29:12.299Z,67.21
2023-02-08T21:31:40.136Z,67.26
2023-02-08T21:34:10.583Z,67.44
2023-02-08T21:36:38.333Z,67.30
2023-02-08T21:39:08.450Z,67.42
2023-02-08T21:41:36.060Z,67.36
2023-02-08T21:44:04.172Z,67.39
2023-02-08T21:46:32.114Z,67.47
2023-02-08T21:49:18.742Z,68.41
2023-02-08T21:52:05.130Z,68.18
2023-02-08T21:54:46.059Z,68.30
2023-02-08T21:57:19.367Z,68.14
2023-02-08T21:59:48.875Z,68.13
2023-02-08T22:02:25.151Z,68.21
2023-02-08T22:05:12.871Z,68.24
2023-02-08T22:07:49.904Z,68.34
2023-02-08T22:10:19.746Z,68.63
2023-02-08T22:12:47.385Z,68.52
2023-02-08T22:15:18.003Z,68.33
2023-02-08T22:17:45.826Z,68.35
2023-02-08T22:20:14.718Z,68.70
2023-02-08T22:22:42.367Z,68.45
2023-02-08T22:25:13.174Z,68.40
2023-02-08T22:27:41.084Z,68.56
2023-02-08T22:30:11.643Z,68.84
2023-02-08T22:32:41.779Z,69.05
2023-02-08T22:35:10.562Z,69.36
2023-02-08T22:37:44.784Z,69.23
2023-02-08T22:40:12.906Z,69.75
2023-02-08T22:42:41.035Z,69.44
2023-02-08T22:45:08.974Z,69.44
2023-02-08T22:47:37.554Z,69.60
2023-02-08T22:50:08.901Z,69.28
2023-02-08T22:52:36.437Z,69.68
2023-02-08T22:55:05.196Z,69.92
2023-02-08T22:57:33.950Z,69.84
2023-02-08T23:00:01.944Z,69.85
2023-02-08T23:02:29.895Z,69.85
2023-02-08T23:04:57.690Z,69.53
2023-02-08T23:07:25.698Z,69.44
2023-02-08T23:09:53.088Z,69.33
2023-02-08T23:12:20.416Z,69.50
2023-02-08T23:14:49.261Z,69.55
2023-02-08T23:17:16.788Z,69.56
2023-02-08T23:19:44.331Z,69.35
2023-02-08T23:22:11.849Z,69.53
2023-02-08T23:24:39.054Z,69.51
2023-02-08T23:27:06.746Z,69.70
2023-02-08T23:29:34.136Z,69.69
2023-02-08T23:32:01.630Z,69.84
2023-02-08T23:34:29.242Z,69.66
2023-02-08T23:36:57.483Z,70.09
2023-02-08T23:39:25.223Z,70.02
2023-02-08T23:41:55.108Z,69.86
2023-02-08T23:44:23.057Z,70.00
2023-02-08T23:46:50.506Z,69.99
2023-02-08T23:49:17.869Z,69.92
2023-02-08T23:51:45.221Z,69.97
2023-02-08T23:54:12.700Z,69.86
2023-02-08T23:56:40.236Z,69.92
2023-02-08T23:59:09.356Z,69.90
